Česky Dansk Deutsch English Español Suomi Français Magyar Italiano Nederlands norsk Polski Português svenska Türkçe

 

Het Weer

Hannover (Duitsland)

22:50, 13 august 2016 (GMT)

NWNNE
WE
SWSSE
Home            
Hannover Wunstorf Celle Bergen Bueckeburg Braunschweig Fassberg Bremen Diepholz Lemwerder Guetersloh Hamburg-Finkenwerder Paderborn / Lippstadt Kassel / Calden Hamburg-Fuhlsbuettel Magdeburg, Sachsen-Anhalt Muenster / Osnabrueck Hopsten Fritzlar Rheine-Bentlage Nordholz Meppen-Mil Luebeck-Blankensee

Om een weerknop op uw website of weblog te plaatsen, copieer onderstaande code en plak die in uw pagina. In het eerste vakje staat HTML-code, in het tweede vakje UBB-code.


Add to Google

Details

Wind speed:2 bf, 4 kn, 2.1 m/s, 4.6 miles/h, 7.4 km/h
Wind direction:SW, 220° - W, 280°
Sigtbarheden:Større end 10000 m, 10 km, 32800 ft, 6.2 miles
Clouds:Nogle få at 4000 ft, 1219 m
Brudte at 7500 ft, 2286 m
Temperaturen:17°C, 63°F
Dugpunkt:15°C, 59°F
Lufttrykket:1021 hPa, 765.8 mmHg, 30.15 inHg, 1.008 atm
Relative luftfugtigheden:88.0 %
METAR:EDDV 132250Z 25004KT 220V280 9999 FEW040 BKN075 17/15 Q1021

Snelkoppelingen

Actuele weersinformatie van de hele wereld. Voeg locaties toe met het plus (+) symbool. Deze snelkoppelingen kunnen worden toegevoegd aan Google.

Lid van de Technetium groep

website free tracking
StatCounter NetStat W3C Validator

02-10-2022 08:53:48
astro.technetium.be money.technetium.be phote.technetium.be tafeltennistafel.technetium.be www.ligfiets.net